Hauptseite
METAR-TAF:

METAR-TAF

Flughäfen :

Dubai, Vereinigte Arabische Emirate

Flughafen Dubai

Breite: 25-15-10N, Länge: 055-21-52E, Höhe: 8 m

Beobachtung

Neuester Wetterbericht von vor 42 Minuten, um 02:00 UTC
Wind 3 kt aus Nord, variierte zwischen Nordwest und Ost
Temperatur 35°C
Luftfeuchtigkeit 67%
Luftdruck 999 hPa
Sichtweite: 4500 m
verbreitet Staub

METAR: OMDB 280200Z 01003KT 320V100 4500 DU NSC 35/28 Q0999 NOSIG

Zeit: 06:42 (02:42 UTC)

Prognose

Neuester Wetterbericht von vor 3 Stunden und 45 Minuten, um 22:57 UTC
Gültige Prognose vom 28 um 00 UTC bis 29 um 06 UTC
Wind 5 kt aus Nordost
Sichtweite: 8000 m
Übergehend zu
vom 28 um 07 UTC bis 28 um 09 UTC
Wind 12 kt aus Nord/Nordwest
Übergehend zu
vom 28 um 16 UTC bis 28 um 18 UTC
Wind 5 kt aus Nordost

TAF: OMDB 272257Z 2800/2906 05005KT 8000 NSC BECMG 2807/2809 34012KT BECMG 2816/2818 04005KT

Wetterbeobachtungen und Prognosen von mehr als 4000 Flughäfen (METAR und TAF Bericht).

Die verfügbaren Stationen werden durch gelbe und rote Markierungen auf der Karte dargestellt.

Führen Sie die Maus auf sie, um den Namen der Station zu sehen.

Darauf klicken, um die Beobachtung von Wetterbeobachtungen und Prognosen zu sehen.

Um die Karte zu ändern : klicken Sie auf den grünen Tasten mit einem schwarzen Kreuz Zum Vergrößern, auf den grünen Button mit einem Gedankenstrich zu verkleinern, oder auf die grünen Pfeile für benachbarte Karten.


METAR-TAF: